Flight Track Log - Related Links

Times and Time Zones

All times are in EDT time to prevent confusion due to time zone crossing. See the JBU1329 flight status page for this flight to view local times or setup timezone preferences in your user account.

Time Position Orientation Groundspeed Altitude Reporting Facility
EDT Latitude Longitude Course Direction KTS MPH feet Rate Location/Type
Tue 09:15:05 AM 42.3667 -70.9667 259° West 174 200 800  Level KA90
Tue 09:15:47 AM 42.3667 -70.9333 90° East 178 205 1,900 2,204 Climbing KA90
Tue 09:16:43 AM 42.3831 -70.8578 74° East 243 280 4,400 2,586 Climbing Boston Center
Tue 09:17:00 AM 42.1057 -71.5549 265° West  Level FlightAware Approximate
Tue 09:17:43 AM 42.3775 -70.7594 94° East 248 285 6,900  Level Boston Center
Tue 09:18:00 AM 42.0978 -71.6421 251° West  Level FlightAware Approximate
Tue 09:18:43 AM 42.3042 -70.7278 162° South 210 242 10,200  Level Boston Center
Tue 09:19:00 AM 42.0796 -71.7264 259° West  Level FlightAware Approximate
Tue 09:19:43 AM 42.2339 -70.7744 206° Southwest 213 245 12,200  Level Boston Center
Tue 09:20:00 AM 42.0672 -71.8128 259° West  Level FlightAware Approximate
Tue 09:20:43 AM 42.2064 -70.8844 251° West 217 250 15,200  Level Boston Center
Tue 09:21:43 AM 42.1911 -70.9914 259° West 288 331 17,600 2,700 Climbing Boston Center
Tue 09:22:43 AM 42.1761 -71.1289 262° West 317 365 20,600 2,550 Climbing Boston Center
Tue 09:23:43 AM 42.1586 -71.2553 259° West 336 387 22,700 1,900 Climbing Boston Center
Tue 09:24:43 AM 42.1267 -71.3792 251° West 341 392 24,400 1,700 Climbing Boston Center
Tue 09:25:43 AM 42.0839 -71.4975 244° Southwest 346 398 26,100 1,700 Climbing Boston Center
Tue 09:26:43 AM 42.0347 -71.6211 242° Southwest 358 412 27,800 1,400 Climbing Boston Center
Tue 09:27:43 AM 41.9878 -71.7475 243° Southwest 370 426 28,900 1,600 Climbing Boston Center
Tue 09:28:43 AM 41.9406 -71.8708 243° Southwest 375 432 31,000 1,550 Climbing Boston Center
Tue 09:29:43 AM 41.8953 -71.9911 243° Southwest 375 432 32,000 500 Climbing Boston Center
Tue 09:30:43 AM 41.8478 -72.1167 243° Southwest 370 426 32,000  Level Boston Center
Tue 09:31:43 AM 41.7981 -72.2453 243° Southwest 370 426 32,000  Level Boston Center
Tue 09:32:43 AM 41.7500 -72.3733 243° Southwest 375 432 32,000  Level Boston Center
Tue 09:33:43 AM 41.7022 -72.5014 243° Southwest 381 438 32,000  Level Boston Center
Tue 09:34:43 AM 41.6561 -72.6122 241° Southwest 381 438 32,000  Level Boston Center
Tue 09:35:43 AM 41.6081 -72.7428 244° Southwest 386 444 32,000  Level Boston Center
Tue 09:36:43 AM 41.5597 -72.8700 243° Southwest 391 450 32,000  Level Boston Center
Tue 09:37:43 AM 41.5092 -73.0083 244° Southwest 385 443 32,000  Level Boston Center
Tue 09:38:43 AM 41.4583 -73.1381 242° Southwest 390 449 32,000  Level Boston Center
Tue 09:39:43 AM 41.4075 -73.2647 242° Southwest 390 449 32,000  Level Boston Center
Tue 09:42:13 AM 41.2889 -73.5683 243° Southwest 385 443 32,000  Level New York Center
Tue 09:43:14 AM 41.2236 -73.6842 233° Southwest 391 450 32,000  Level New York Center
Tue 09:44:14 AM 41.1475 -73.8131 232° Southwest 409 471 32,000  Level New York Center
Tue 09:45:14 AM 41.0797 -73.9283 232° Southwest 409 471 32,000  Level New York Center
Tue 09:46:15 AM 41.0122 -74.0381 231° Southwest 409 471 32,000  Level New York Center
Tue 09:47:13 AM 40.9422 -74.1556 232° Southwest 403 464 32,000 -915 Level New York Center
Tue 09:48:13 AM 40.8703 -74.2644 229° Southwest 403 464 30,200 -1,950 Descending New York Center
Tue 09:49:13 AM 40.8022 -74.3814 232° Southwest 408 470 28,100 -1,140 Descending New York Center
Tue 09:50:14 AM 40.7342 -74.4928 231° Southwest 408 470 27,900 -99 Descending New York Center
Tue 09:51:14 AM 40.6683 -74.6014 231° Southwest 398 458 27,900 50 Level New York Center
Tue 09:52:15 AM 40.6019 -74.7153 233° Southwest 398 458 28,000  Climbing New York Center
Tue 09:53:13 AM 40.5297 -74.8203 228° Southwest 398 458 27,900 -864 Descending New York Center
Tue 09:54:13 AM 40.4550 -74.9250 227° Southwest 398 458 26,300 -1,884 Descending New York Center
Tue 09:55:14 AM 40.3850 -75.0217 226° Southwest 403 464 24,100 -2,066 Descending New York Center
Tue 09:56:15 AM 40.3147 -75.1233 228° Southwest 403 464 22,100 -1,983 Descending New York Center
Tue 09:57:15 AM 40.2422 -75.2222 226° Southwest 391 450 20,100 -1,563 Descending New York Center
Tue 09:58:14 AM 40.1631 -75.3314 227° Southwest 385 443 19,000 -550 Descending New York Center
Tue 09:59:15 AM 40.0944 -75.4272 227° Southwest 379 436 19,000  Level New York Center
Tue 10:00:13 AM 40.0261 -75.5228 227° Southwest 374 430 19,000 -252 Level New York Center
Tue 10:01:14 AM 39.9642 -75.6081 227° Southwest 367 422 18,500 -1,328 Descending New York Center
Tue 10:02:15 AM 39.8950 -75.7197 231° Southwest 367 422 16,300 -1,210 Descending New York Center
Tue 10:03:13 AM 39.8431 -75.8161 235° Southwest 367 422 16,100 -102 Descending New York Center
Tue 10:04:13 AM 39.7817 -75.9306 235° Southwest 362 417 16,100 -1,510 Level New York Center
Tue 10:05:48 AM 39.7000 -76.1000 238° Southwest 337 388 12,200 -1,819 Descending Potomac TRACON
Tue 10:06:48 AM 39.6333 -76.1833 224° Southwest 297 342 11,400 -1,250 Descending Potomac TRACON
Tue 10:07:48 AM 39.5833 -76.2667 232° Southwest 283 326 9,700 -1,686 Descending Potomac TRACON
Tue 10:08:49 AM 39.5333 -76.3333 226° Southwest 280 322 8,000 -1,587 Descending Potomac TRACON
Tue 10:09:49 AM 39.4667 -76.4000 218° Southwest 275 316 6,500 -1,438 Descending Potomac TRACON
Tue 10:10:50 AM 39.4000 -76.4167 191° South 266 306 5,100 -992 Descending Potomac TRACON
Tue 10:11:50 AM 39.3333 -76.4000 169° South 260 299 4,500 -524 Descending Potomac TRACON
Tue 10:12:56 AM 39.2500 -76.3833 171° South 259 298 4,000 -238 Descending Potomac TRACON
Tue 10:13:56 AM 39.1833 -76.3667 169° South 261 300 4,000 -100 Level Potomac TRACON
Tue 10:14:56 AM 39.1333 -76.4167 218° Southwest 217 250 3,800 -600 Descending Potomac TRACON
Tue 10:15:56 AM 39.1000 -76.4667 229° Southwest 207 238 2,800 -850 Descending Potomac TRACON
Tue 10:16:56 AM 39.1000 -76.5500 270° West 205 236 2,100 -522 Descending Potomac TRACON
Tue 10:17:51 AM 39.1000 -76.6000 270° West 182 209 1,800 -678 Descending Potomac TRACON
Tue 10:18:51 AM 39.1333 -76.6333 322° Northwest 151 174 800 -1,000 Descending Potomac TRACON
Tue 10:20:00 AM 39.1667 -76.6667 270° West  Level FlightAware Approximate

Login

Don't have an account? Register now (free) for customized features, flight alerts, and more!